»·PEaware :: COA357 KMSY-KSAT

COA357 :: KMSY-KSAT

FLIGHT INFORMATION

Flight Status: Arrived
Operator:
Continental Air Lines
More flights by this operator :: More flights under this callsign
Pilot: Mitchell L. (19304)
Aircraft: MCDONNELL-DOUGLAS MD-88
(MD88)
More flights by this aircraft type
Origin: KMSY Armstrong New Orleans Intl
United States
Destination: KSAT San Antonio Intl
United States
More flights between these airports :: More routes between these airports
Route: LFT LCH IAH BRAUN2
File this flight plan on PilotEdge
Remarks:
Altitude:
(Current/Filed)
30,000ft
Speed:
(Current/Filed)
450kts
Departed: 11-Aug-18 07:49 AM
Arrived: 11-Aug-18 09:05 AM
Distance/Time
Traveled:
429nm/1:16
Distance/Time
To Go:
Arrived

Flight Plot

Page will automatically refresh every two minutes.

Flight plan parsing failed; only flown route is shown


Map Options




Map Legend


Flown Route
Filed Route
Departure Airport
Arrival Airport
Navaid (VOR, NDB)
Fix

Horizontal Profiles

Position Reports

Time Latitude Longitude Heading Altitude Ground
Speed
11-Aug-18 07:23 29.987783 -90.256967 119 9ft 0kts
11-Aug-18 07:24 29.987783 -90.256967 119 9ft 0kts
11-Aug-18 07:25 29.987783 -90.256967 119 9ft 0kts
11-Aug-18 07:26 29.987783 -90.256967 119 9ft 0kts
11-Aug-18 07:27 29.987783 -90.256967 119 8ft 0kts
11-Aug-18 07:28 29.987783 -90.256967 119 8ft 0kts
11-Aug-18 07:29 29.987783 -90.256967 119 8ft 0kts
11-Aug-18 07:30 29.987783 -90.256967 119 8ft 0kts
11-Aug-18 07:31 29.987783 -90.256967 119 8ft 0kts
11-Aug-18 07:32 29.987783 -90.256967 119 8ft 0kts
11-Aug-18 07:33 29.987783 -90.256967 119 8ft 0kts
11-Aug-18 07:34 29.987783 -90.256967 119 8ft 0kts
11-Aug-18 07:35 29.987783 -90.256967 119 8ft 0kts
11-Aug-18 07:36 29.987783 -90.256967 119 8ft 0kts
11-Aug-18 07:37 29.987783 -90.256967 119 8ft 0kts
11-Aug-18 07:38 29.987783 -90.256967 119 8ft 0kts
11-Aug-18 07:39 29.987783 -90.256967 119 8ft 0kts
11-Aug-18 07:40 29.987783 -90.256967 119 8ft 0kts
11-Aug-18 07:41 29.987783 -90.256967 119 8ft 0kts
11-Aug-18 07:42 29.987966 -90.257337 119 8ft 2kts
11-Aug-18 07:43 29.987904 -90.257768 38 8ft 0kts
11-Aug-18 07:44 29.987904 -90.257768 38 8ft 0kts
11-Aug-18 07:45 29.987904 -90.257768 38 8ft 0kts
11-Aug-18 07:46 29.987904 -90.257768 38 8ft 0kts
11-Aug-18 07:47 29.987906 -90.257767 38 8ft 0kts
11-Aug-18 07:48 29.988749 -90.257031 37 8ft 9kts
11-Aug-18 07:49 29.988385 -90.252807 105 8ft 19kts
11-Aug-18 07:50 29.990927 -90.257897 284 8ft 97kts
11-Aug-18 07:51 30.003665 -90.312581 284 3567ft 207kts
11-Aug-18 07:52 30.022075 -90.394168 285 6837ft 323kts
11-Aug-18 07:53 30.045269 -90.499548 284 10851ft 334kts
11-Aug-18 07:54 30.059116 -90.599825 275 14404ft 308kts
11-Aug-18 07:55 30.067596 -90.695549 275 16083ft 291kts
11-Aug-18 07:56 30.058619 -90.788588 266 18155ft 300kts
11-Aug-18 07:57 30.062866 -90.885499 275 20065ft 309kts
11-Aug-18 07:58 30.073799 -90.988873 276 21138ft 341kts
11-Aug-18 07:59 30.086797 -91.101678 276 22206ft 368kts
11-Aug-18 08:00 30.100845 -91.221641 277 23388ft 386kts
11-Aug-18 08:01 30.115484 -91.345524 277 24885ft 391kts
11-Aug-18 08:02 30.130290 -91.469858 277 26363ft 392kts
11-Aug-18 08:03 30.145318 -91.595068 277 27579ft 398kts
11-Aug-18 08:04 30.160764 -91.722776 277 28586ft 406kts
11-Aug-18 08:05 30.176618 -91.852784 277 29592ft 412kts
11-Aug-18 08:06 30.192559 -91.984296 275 30585ft 415kts
11-Aug-18 08:07 30.188049 -92.121011 266 30434ft 444kts
11-Aug-18 08:08 30.180677 -92.264947 266 30149ft 452kts
11-Aug-18 08:09 30.173517 -92.410443 267 30146ft 455kts
11-Aug-18 08:10 30.166495 -92.556435 267 30062ft 454kts
11-Aug-18 08:11 30.159694 -92.701106 266 30001ft 453kts
11-Aug-18 08:12 30.153025 -92.846401 267 30000ft 453kts
11-Aug-18 08:13 30.146635 -92.989351 266 30028ft 452kts
11-Aug-18 08:14 30.139600 -93.134360 263 30079ft 454kts
11-Aug-18 08:15 30.126587 -93.279499 263 30119ft 456kts
11-Aug-18 08:16 30.113555 -93.425299 263 30138ft 456kts
11-Aug-18 08:17 30.100717 -93.570643 263 30143ft 457kts
11-Aug-18 08:18 30.088036 -93.716020 263 30146ft 457kts
11-Aug-18 08:19 30.075477 -93.861870 263 30145ft 457kts
11-Aug-18 08:20 30.063090 -94.007601 263 30138ft 458kts
11-Aug-18 08:21 30.050834 -94.153711 263 30133ft 457kts
11-Aug-18 08:22 30.038786 -94.299241 263 30135ft 457kts
11-Aug-18 08:23 30.026879 -94.445047 263 30136ft 457kts
11-Aug-18 08:24 30.015130 -94.590888 264 30135ft 457kts
11-Aug-18 08:25 30.003599 -94.735912 263 30124ft 457kts
11-Aug-18 08:26 29.992164 -94.881830 263 30117ft 456kts
11-Aug-18 08:27 29.980972 -95.026650 264 30117ft 453kts
11-Aug-18 08:28 29.969973 -95.171078 264 30118ft 453kts
11-Aug-18 08:29 29.959010 -95.315043 263 30116ft 453kts
11-Aug-18 08:30 29.933762 -95.456698 255 30117ft 452kts
11-Aug-18 08:31 29.903497 -95.596642 255 30116ft 452kts
11-Aug-18 08:32 29.873733 -95.735524 255 30119ft 453kts
11-Aug-18 08:33 29.843765 -95.876092 255 30119ft 453kts
11-Aug-18 08:34 29.813929 -96.016742 255 30119ft 453kts
11-Aug-18 08:35 29.785155 -96.157023 260 30110ft 453kts
11-Aug-18 08:36 29.787579 -96.299816 274 30109ft 454kts
11-Aug-18 08:37 29.798572 -96.442166 274 30100ft 438kts
11-Aug-18 08:38 29.808914 -96.580362 274 28458ft 429kts
11-Aug-18 08:39 29.818535 -96.713617 273 26839ft 412kts
11-Aug-18 08:40 29.827883 -96.842926 273 25246ft 404kts
11-Aug-18 08:41 29.846126 -96.967199 266 23700ft 393kts
11-Aug-18 08:42 29.849224 -97.091107 272 22119ft 384kts
11-Aug-18 08:43 29.856225 -97.211374 272 20517ft 371kts
11-Aug-18 08:44 29.863402 -97.327576 272 18931ft 363kts
11-Aug-18 08:45 29.870652 -97.442953 272 17622ft 356kts
11-Aug-18 08:46 29.877845 -97.555874 272 16425ft 352kts
11-Aug-18 08:47 29.884932 -97.665650 272 15245ft 348kts
11-Aug-18 08:48 29.892173 -97.776317 272 14047ft 342kts
11-Aug-18 08:49 29.893903 -97.883816 246 12842ft 332kts
11-Aug-18 08:50 29.850444 -97.976130 241 11688ft 324kts
11-Aug-18 08:51 29.811015 -98.067804 243 10490ft 316kts
11-Aug-18 08:52 29.773153 -98.157059 244 9299ft 310kts
11-Aug-18 08:53 29.735898 -98.245040 242 8080ft 302kts
11-Aug-18 08:54 29.700437 -98.328598 242 7247ft 282kts
11-Aug-18 08:55 29.642849 -98.373105 165 6572ft 271kts
11-Aug-18 08:56 29.570019 -98.350835 166 5878ft 272kts
11-Aug-18 08:57 29.505295 -98.313519 127 5094ft 268kts
11-Aug-18 08:58 29.457890 -98.248686 130 4438ft 250kts
11-Aug-18 08:59 29.410701 -98.195875 165 3453ft 229kts
11-Aug-18 09:00 29.380583 -98.237487 292 3098ft 209kts
11-Aug-18 09:01 29.394243 -98.298605 318 3109ft 196kts
11-Aug-18 09:02 29.431953 -98.343231 313 2788ft 188kts
11-Aug-18 09:03 29.466895 -98.387877 312 2370ft 182kts
11-Aug-18 09:04 29.498722 -98.428877 312 1650ft 156kts
11-Aug-18 09:05 29.524634 -98.462433 312 862ft 133kts
11-Aug-18 09:06 29.539555 -98.481806 215 815ft 7kts
11-Aug-18 09:07 29.535608 -98.478261 130 815ft 32kts
11-Aug-18 09:08 29.529706 -98.470551 132 815ft 41kts
11-Aug-18 09:09 29.526108 -98.469934 222 815ft 9kts
11-Aug-18 09:10 29.526100 -98.470668 328 815ft 0kts
11-Aug-18 09:11 29.526120 -98.470683 328 815ft 0kts
11-Aug-18 09:12 29.526120 -98.470683 328 815ft 0kts
11-Aug-18 09:13 29.526120 -98.470683 328 815ft 0kts
11-Aug-18 09:14 29.526120 -98.470683 328 815ft 0kts

Navigation Log

Ident Type
Flight plan parsing failed, navigation log unavailable